createdAt,value
2018-09-21T00:00:15.542Z,8.67
2018-09-21T00:02:44.980Z,9.23
2018-09-21T00:05:14.453Z,9.50
2018-09-21T00:07:43.949Z,8.40
2018-09-21T00:10:13.435Z,9.20
2018-09-21T00:12:42.874Z,8.60
2018-09-21T00:15:12.290Z,9.20
2018-09-21T00:17:41.754Z,9.13
2018-09-21T00:20:11.215Z,8.50
2018-09-21T00:22:40.681Z,9.87
2018-09-21T00:25:10.239Z,10.20
2018-09-21T00:27:39.689Z,10.10
2018-09-21T00:30:09.193Z,10.60
2018-09-21T00:32:38.709Z,9.40
2018-09-21T00:35:08.198Z,9.23
2018-09-21T00:37:37.638Z,9.20
2018-09-21T00:40:07.182Z,9.90
2018-09-21T00:42:36.625Z,9.87
2018-09-21T00:45:06.329Z,10.23
2018-09-21T00:47:35.844Z,10.50
2018-09-21T00:50:05.393Z,9.57
2018-09-21T00:52:34.897Z,9.17
2018-09-21T00:55:04.512Z,9.63
2018-09-21T00:57:33.957Z,8.63
2018-09-21T01:00:03.565Z,9.00
2018-09-21T01:02:33.235Z,9.80
2018-09-21T01:05:02.754Z,8.83
2018-09-21T01:07:32.213Z,9.30
2018-09-21T01:10:01.722Z,10.07
2018-09-21T01:12:31.165Z,9.10
2018-09-21T01:15:00.613Z,9.97
2018-09-21T01:17:30.110Z,9.17
2018-09-21T01:19:59.760Z,9.70
2018-09-21T01:22:29.232Z,8.87
2018-09-21T01:24:58.755Z,9.10
2018-09-21T01:27:28.243Z,8.63
2018-09-21T01:29:57.724Z,8.60
2018-09-21T01:32:27.272Z,8.97
2018-09-21T01:34:56.740Z,9.20
2018-09-21T01:37:26.220Z,9.00
2018-09-21T01:39:55.937Z,8.77
2018-09-21T01:42:25.417Z,9.30
2018-09-21T01:44:55.049Z,9.13
2018-09-21T01:47:24.733Z,8.83
2018-09-21T01:49:54.247Z,9.30
2018-09-21T01:52:23.830Z,9.60
2018-09-21T01:54:53.498Z,10.47
2018-09-21T01:57:23.089Z,9.43
2018-09-21T01:59:52.652Z,9.33
2018-09-21T02:02:22.286Z,9.30
2018-09-21T02:04:51.932Z,9.73
2018-09-21T02:07:21.500Z,8.87
2018-09-21T02:09:51.706Z,10.37
2018-09-21T02:12:21.371Z,10.43
2018-09-21T02:14:50.977Z,10.37
2018-09-21T02:17:20.877Z,10.60
2018-09-21T02:19:50.502Z,10.77
2018-09-21T02:22:20.105Z,10.30
2018-09-21T02:24:49.807Z,10.90
2018-09-21T02:27:19.385Z,10.00
2018-09-21T02:29:48.998Z,9.67
2018-09-21T02:32:18.586Z,9.93
2018-09-21T02:34:48.152Z,10.30
2018-09-21T02:37:17.754Z,10.03
2018-09-21T02:39:47.569Z,10.67
2018-09-21T02:42:17.209Z,9.83
2018-09-21T02:44:46.887Z,10.33
2018-09-21T02:47:16.517Z,11.10
2018-09-21T02:49:46.108Z,10.30
2018-09-21T02:52:15.728Z,10.63
2018-09-21T02:54:45.369Z,10.10
2018-09-21T02:57:14.960Z,10.30
2018-09-21T02:59:44.611Z,9.87
2018-09-21T03:02:14.197Z,10.50
2018-09-21T03:04:48.948Z,10.90
2018-09-21T03:07:18.573Z,10.87
2018-09-21T03:09:48.113Z,11.30
2018-09-21T03:12:17.699Z,9.87
2018-09-21T03:14:47.310Z,10.00
2018-09-21T03:17:16.890Z,10.57
2018-09-21T03:19:46.464Z,9.93
2018-09-21T03:22:16.219Z,10.30
2018-09-21T03:24:45.797Z,11.10
2018-09-21T03:27:15.403Z,11.23
2018-09-21T03:29:44.983Z,10.47
2018-09-21T03:32:14.548Z,9.97
2018-09-21T03:34:44.155Z,11.50
2018-09-21T03:37:13.815Z,10.40
2018-09-21T03:39:43.374Z,10.30
2018-09-21T03:42:12.969Z,10.30
2018-09-21T03:44:42.772Z,10.90
2018-09-21T03:47:12.328Z,11.07
2018-09-21T03:49:42.009Z,10.40
2018-09-21T03:52:11.627Z,10.60
2018-09-21T03:54:41.180Z,10.63
2018-09-21T03:57:10.822Z,10.30
2018-09-21T03:59:40.398Z,10.93
2018-09-21T04:02:10.021Z,11.40
2018-09-21T04:04:42.904Z,10.60
2018-09-21T04:07:12.732Z,10.50
2018-09-21T04:09:42.297Z,10.27
2018-09-21T04:12:11.854Z,9.93
2018-09-21T04:14:41.401Z,10.37
2018-09-21T04:17:10.964Z,9.67
2018-09-21T04:19:40.636Z,10.90
2018-09-21T04:22:10.177Z,9.97
2018-09-21T04:24:39.748Z,10.47
2018-09-21T04:27:09.337Z,10.47
2018-09-21T04:29:38.945Z,10.13
2018-09-21T04:32:08.506Z,11.07
2018-09-21T04:34:38.074Z,9.87
2018-09-21T04:37:07.707Z,10.37
2018-09-21T04:39:37.409Z,10.53
2018-09-21T04:42:07.005Z,11.20
2018-09-21T04:44:36.675Z,9.63
2018-09-21T04:47:06.299Z,10.00
2018-09-21T04:49:36.011Z,10.50
2018-09-21T04:52:05.741Z,10.53
2018-09-21T04:54:35.309Z,10.63
2018-09-21T04:57:04.916Z,9.70
2018-09-21T04:59:34.560Z,10.00
2018-09-21T05:02:04.152Z,9.80
2018-09-21T05:04:33.697Z,11.10
2018-09-21T05:07:03.278Z,9.90
2018-09-21T05:09:32.837Z,10.60
2018-09-21T05:12:02.506Z,10.33
2018-09-21T05:14:32.198Z,10.00
2018-09-21T05:17:01.764Z,10.40
2018-09-21T05:19:31.616Z,10.60
2018-09-21T05:22:01.237Z,10.37
2018-09-21T05:24:30.773Z,10.90
2018-09-21T05:27:00.359Z,11.13
2018-09-21T05:29:29.945Z,10.53
2018-09-21T05:31:59.527Z,10.70
2018-09-21T05:34:29.305Z,10.53
2018-09-21T05:37:05.697Z,10.63
2018-09-21T05:39:35.385Z,10.10
2018-09-21T05:42:05.070Z,10.47
2018-09-21T05:44:34.651Z,11.20
2018-09-21T05:47:04.511Z,10.90
2018-09-21T05:49:34.120Z,10.60
2018-09-21T05:52:03.728Z,10.40
2018-09-21T05:54:33.338Z,10.67
2018-09-21T05:57:02.896Z,9.97
2018-09-21T05:59:32.493Z,11.57
2018-09-21T06:02:02.365Z,9.80
2018-09-21T06:04:31.916Z,9.80
2018-09-21T06:07:01.741Z,9.23
2018-09-21T06:09:31.507Z,9.07
2018-09-21T06:12:01.254Z,9.20
2018-09-21T06:14:30.901Z,9.13
2018-09-21T06:17:00.532Z,7.63
2018-09-21T06:19:30.208Z,8.53
2018-09-21T06:21:59.789Z,8.30
2018-09-21T06:24:29.585Z,8.00
2018-09-21T06:26:59.177Z,7.80
2018-09-21T06:29:28.763Z,8.00
2018-09-21T06:31:58.376Z,6.93
2018-09-21T06:34:28.016Z,7.00
2018-09-21T06:36:57.625Z,7.30
2018-09-21T06:39:27.372Z,6.27
2018-09-21T06:41:56.984Z,7.47
2018-09-21T06:44:26.627Z,6.60
2018-09-21T06:46:56.371Z,7.00
2018-09-21T06:49:26.065Z,6.10
2018-09-21T06:51:55.748Z,6.40
2018-09-21T06:54:25.424Z,6.40
2018-09-21T06:56:55.045Z,6.30
2018-09-21T06:59:24.669Z,6.53
2018-09-21T07:01:54.534Z,6.40
2018-09-21T07:04:24.192Z,5.80
2018-09-21T07:06:53.803Z,5.80
2018-09-21T07:09:23.409Z,5.13
2018-09-21T07:11:53.077Z,5.30
2018-09-21T07:14:22.663Z,5.00
2018-09-21T07:16:52.332Z,5.77
2018-09-21T07:19:22.029Z,5.97
2018-09-21T07:21:51.641Z,5.40
2018-09-21T07:24:21.280Z,5.73
2018-09-21T07:26:50.913Z,5.33
2018-09-21T07:29:20.560Z,6.07
2018-09-21T07:31:50.151Z,6.43
2018-09-21T07:34:19.752Z,5.87
2018-09-21T07:36:49.993Z,5.13
2018-09-21T07:39:19.548Z,5.17
2018-09-21T07:41:49.117Z,6.60
2018-09-21T07:44:18.734Z,5.53
2018-09-21T07:46:48.542Z,5.43
2018-09-21T07:49:18.155Z,5.10
2018-09-21T07:51:47.748Z,4.70
2018-09-21T07:54:17.372Z,6.00
2018-09-21T07:56:47.008Z,4.50
2018-09-21T07:59:16.596Z,5.70
2018-09-21T08:01:46.229Z,4.10
2018-09-21T08:04:15.782Z,4.67
2018-09-21T08:06:45.429Z,4.50
2018-09-21T08:09:15.247Z,3.70
2018-09-21T08:11:44.890Z,3.33
2018-09-21T08:14:14.545Z,4.00
2018-09-21T08:16:44.245Z,3.77
2018-09-21T08:19:13.826Z,4.77
2018-09-21T08:21:43.460Z,3.73
2018-09-21T08:24:13.144Z,3.97
2018-09-21T08:26:42.902Z,3.80
2018-09-21T08:29:12.489Z,3.80
2018-09-21T08:31:42.214Z,3.70
2018-09-21T08:34:11.897Z,4.17
2018-09-21T08:36:41.498Z,3.60
2018-09-21T08:39:12.236Z,3.43
2018-09-21T08:41:42.229Z,3.73
2018-09-21T08:44:11.842Z,3.67
2018-09-21T08:46:41.511Z,3.53
2018-09-21T08:49:11.200Z,3.43
2018-09-21T08:51:40.885Z,3.43
2018-09-21T08:54:10.617Z,3.90
2018-09-21T08:56:40.217Z,3.70
2018-09-21T08:59:09.899Z,3.50
2018-09-21T09:01:39.589Z,3.53
2018-09-21T09:04:09.786Z,3.60
2018-09-21T09:06:39.415Z,3.10
2018-09-21T09:09:10.876Z,3.40
2018-09-21T09:11:40.753Z,3.60
2018-09-21T09:14:10.727Z,4.03
2018-09-21T09:16:40.771Z,3.43
2018-09-21T09:19:10.431Z,4.27
2018-09-21T09:21:40.249Z,4.00
2018-09-21T09:24:09.897Z,3.60
2018-09-21T09:26:39.512Z,4.00
2018-09-21T09:29:09.522Z,4.07
2018-09-21T09:31:39.585Z,4.30
2018-09-21T09:34:09.568Z,3.27
2018-09-21T09:36:39.315Z,4.03
2018-09-21T09:39:12.421Z,3.87
2018-09-21T09:41:42.080Z,2.80
2018-09-21T09:44:11.983Z,3.27
2018-09-21T09:46:41.721Z,3.73
2018-09-21T09:49:11.341Z,3.60
2018-09-21T09:51:41.058Z,4.10
2018-09-21T09:54:10.710Z,4.23
2018-09-21T09:56:40.449Z,3.60
2018-09-21T09:59:10.043Z,3.63
2018-09-21T10:01:39.672Z,3.80
2018-09-21T10:04:09.295Z,4.23
2018-09-21T10:06:38.889Z,3.73
2018-09-21T10:09:10.998Z,4.30
2018-09-21T10:11:41.197Z,3.93
2018-09-21T10:14:11.033Z,3.60
2018-09-21T10:16:40.855Z,4.10
2018-09-21T10:19:10.464Z,4.17
2018-09-21T10:21:40.223Z,4.40
2018-09-21T10:24:09.993Z,4.07
2018-09-21T10:26:39.586Z,4.60
2018-09-21T10:29:09.355Z,3.97
2018-09-21T10:31:39.003Z,3.70
2018-09-21T10:34:08.629Z,4.60
2018-09-21T10:36:38.256Z,4.20
2018-09-21T10:39:08.543Z,4.60
2018-09-21T10:41:38.354Z,4.23
2018-09-21T10:44:08.329Z,4.30
2018-09-21T10:46:38.181Z,4.13
2018-09-21T10:49:07.834Z,4.13
2018-09-21T10:51:37.521Z,3.97
2018-09-21T10:54:07.267Z,3.80
2018-09-21T10:56:36.836Z,3.80
2018-09-21T10:59:06.502Z,4.40
2018-09-21T11:01:36.125Z,4.03
2018-09-21T11:04:05.951Z,3.80
2018-09-21T11:06:35.535Z,3.90
2018-09-21T11:09:08.625Z,4.17
2018-09-21T11:11:38.333Z,4.47
2018-09-21T11:14:07.956Z,5.47
2018-09-21T11:16:37.702Z,4.50
2018-09-21T11:19:07.337Z,4.77
2018-09-21T11:21:37.029Z,4.00
2018-09-21T11:24:06.692Z,4.40
2018-09-21T11:26:36.261Z,4.87
2018-09-21T11:29:06.086Z,4.30
2018-09-21T11:31:35.665Z,5.07
2018-09-21T11:34:05.231Z,4.60
2018-09-21T11:36:34.829Z,3.83
2018-09-21T11:39:09.162Z,4.80
2018-09-21T11:41:38.789Z,4.00
2018-09-21T11:44:08.653Z,4.57
2018-09-21T11:46:38.318Z,4.63
2018-09-21T11:49:08.013Z,4.37
2018-09-21T11:51:37.574Z,4.07
2018-09-21T11:54:07.289Z,4.70
2018-09-21T11:56:36.817Z,4.57
2018-09-21T11:59:06.417Z,4.73
2018-09-21T12:01:36.066Z,4.93
2018-09-21T12:04:05.634Z,5.57
2018-09-21T12:06:35.153Z,5.77
2018-09-21T12:09:05.356Z,5.80
2018-09-21T12:11:35.258Z,6.10
2018-09-21T12:14:05.027Z,5.50
2018-09-21T12:16:34.651Z,4.43
2018-09-21T12:19:04.277Z,4.30
2018-09-21T12:21:33.972Z,5.13
2018-09-21T12:24:03.580Z,4.73
2018-09-21T12:26:33.144Z,4.90
2018-09-21T12:29:02.731Z,4.50
2018-09-21T12:31:32.315Z,5.90
2018-09-21T12:34:01.873Z,5.07
2018-09-21T12:36:31.692Z,4.43
2018-09-21T12:39:01.230Z,5.43
2018-09-21T12:41:30.834Z,5.17
2018-09-21T12:44:00.400Z,5.43
2018-09-21T12:46:30.416Z,5.70
2018-09-21T12:49:03.653Z,4.80
2018-09-21T12:51:34.516Z,5.00
2018-09-21T12:54:04.155Z,5.40
2018-09-21T12:56:33.752Z,4.73
2018-09-21T12:59:03.417Z,5.00
2018-09-21T13:01:32.969Z,5.60
2018-09-21T13:04:02.651Z,5.20
2018-09-21T13:06:32.297Z,4.70
2018-09-21T13:09:01.866Z,5.20
2018-09-21T13:11:31.484Z,6.27
2018-09-21T13:14:01.091Z,5.30
2018-09-21T13:16:30.750Z,6.40
2018-09-21T13:19:00.489Z,5.10
2018-09-21T13:21:30.110Z,6.13
2018-09-21T13:23:59.719Z,5.33
2018-09-21T13:26:29.326Z,7.87
2018-09-21T13:28:59.182Z,5.50
2018-09-21T13:31:28.765Z,5.87
2018-09-21T13:33:58.391Z,4.33
2018-09-21T13:36:28.238Z,5.27
2018-09-21T13:38:57.820Z,4.37
2018-09-21T13:41:27.473Z,6.17
2018-09-21T13:43:57.094Z,5.57
2018-09-21T13:46:26.653Z,5.77
2018-09-21T13:48:56.398Z,5.23
2018-09-21T13:51:25.988Z,5.30
2018-09-21T13:53:55.577Z,5.60
2018-09-21T13:56:25.278Z,6.30
2018-09-21T13:58:55.404Z,5.57
2018-09-21T14:01:24.966Z,5.50
2018-09-21T14:03:54.574Z,5.00
2018-09-21T14:06:24.149Z,5.20
2018-09-21T14:08:53.765Z,5.27
2018-09-21T14:11:23.350Z,6.63
2018-09-21T14:13:52.905Z,5.90
2018-09-21T14:16:22.462Z,5.77
2018-09-21T14:18:52.049Z,5.30
2018-09-21T14:21:21.649Z,5.57
2018-09-21T14:23:51.245Z,6.07
2018-09-21T14:26:20.871Z,5.30
2018-09-21T14:28:50.470Z,5.20
2018-09-21T14:31:20.012Z,6.10
2018-09-21T14:33:49.721Z,6.40
2018-09-21T14:36:19.482Z,5.07
2018-09-21T14:38:49.021Z,4.80
2018-09-21T14:41:18.723Z,7.87
2018-09-21T14:43:48.952Z,6.57
2018-09-21T14:46:18.513Z,9.40
2018-09-21T14:48:48.138Z,5.40
2018-09-21T14:51:17.728Z,7.30
2018-09-21T14:53:47.314Z,5.00
2018-09-21T14:56:17.024Z,3.83
2018-09-21T14:58:46.713Z,5.33
2018-09-21T15:01:16.300Z,2.33
2018-09-21T15:03:45.879Z,2.13
2018-09-21T15:06:15.476Z,2.93
2018-09-21T15:08:45.114Z,1.80
2018-09-21T15:11:15.165Z,3.27
2018-09-21T15:13:44.808Z,1.47
2018-09-21T15:16:14.480Z,1.70
2018-09-21T15:18:44.101Z,1.90
2018-09-21T15:21:13.749Z,1.33
2018-09-21T15:23:43.299Z,2.13
2018-09-21T15:26:12.900Z,2.10
2018-09-21T15:28:42.490Z,2.57
2018-09-21T15:31:12.057Z,2.10
2018-09-21T15:33:41.689Z,1.80
2018-09-21T15:36:11.315Z,1.50
2018-09-21T15:38:40.944Z,2.07
2018-09-21T15:41:10.583Z,2.50
2018-09-21T15:43:40.287Z,1.60
2018-09-21T15:46:09.812Z,2.27
2018-09-21T15:48:39.466Z,2.27
2018-09-21T15:51:09.546Z,1.70
2018-09-21T15:53:39.172Z,2.40
2018-09-21T15:56:08.857Z,5.00
2018-09-21T15:58:38.507Z,2.87
2018-09-21T16:01:08.127Z,1.97
2018-09-21T16:03:37.741Z,2.20
2018-09-21T16:06:07.505Z,1.77
2018-09-21T16:08:37.052Z,2.70
2018-09-21T16:11:06.644Z,1.80
2018-09-21T16:13:36.213Z,1.60
2018-09-21T16:16:05.781Z,1.70
2018-09-21T16:18:35.488Z,1.37
2018-09-21T16:21:05.447Z,1.73
2018-09-21T16:23:35.285Z,1.50
2018-09-21T16:26:04.841Z,2.50
2018-09-21T16:28:34.413Z,2.67
2018-09-21T16:31:04.145Z,4.37
2018-09-21T16:33:33.745Z,2.10
2018-09-21T16:36:03.408Z,1.73
2018-09-21T16:38:32.885Z,9.40
2018-09-21T16:41:02.555Z,2.03
2018-09-21T16:43:32.102Z,2.10
2018-09-21T16:46:01.879Z,2.07
2018-09-21T16:48:31.499Z,1.60
2018-09-21T16:51:01.566Z,1.80
2018-09-21T16:53:31.109Z,1.80
2018-09-21T16:56:00.705Z,1.23
2018-09-21T16:58:30.444Z,1.93
2018-09-21T17:00:59.986Z,1.97
2018-09-21T17:03:29.631Z,1.70
2018-09-21T17:05:59.353Z,2.03
2018-09-21T17:08:28.901Z,1.87
2018-09-21T17:10:58.476Z,2.30
2018-09-21T17:13:28.178Z,1.97
2018-09-21T17:15:57.709Z,1.83
2018-09-21T17:18:27.277Z,2.37
2018-09-21T17:20:56.906Z,2.17
2018-09-21T17:23:26.532Z,2.40
2018-09-21T17:25:56.109Z,2.30
2018-09-21T17:28:25.830Z,2.03
2018-09-21T17:30:55.420Z,2.23
2018-09-21T17:33:24.994Z,2.33
2018-09-21T17:35:54.553Z,2.57
2018-09-21T17:38:24.077Z,2.80
2018-09-21T17:40:53.714Z,3.00
2018-09-21T17:43:23.274Z,2.40
2018-09-21T17:45:52.802Z,2.40
2018-09-21T17:48:22.574Z,2.37
2018-09-21T17:50:52.124Z,6.13
2018-09-21T17:53:21.706Z,4.23
2018-09-21T17:55:51.331Z,2.93
2018-09-21T17:58:20.904Z,2.90
2018-09-21T18:00:50.612Z,3.07
2018-09-21T18:03:20.157Z,2.37
2018-09-21T18:05:49.716Z,2.60
2018-09-21T18:08:19.577Z,2.90
2018-09-21T18:10:49.120Z,2.63
2018-09-21T18:13:18.717Z,2.97
2018-09-21T18:15:48.501Z,2.60
2018-09-21T18:18:18.233Z,2.50
2018-09-21T18:20:47.809Z,3.70
2018-09-21T18:23:17.380Z,3.30
2018-09-21T18:25:47.078Z,3.10
2018-09-21T18:28:16.613Z,2.90
2018-09-21T18:30:46.161Z,3.60
2018-09-21T18:33:15.940Z,2.97
2018-09-21T18:35:45.476Z,3.33
2018-09-21T18:38:15.036Z,3.53
2018-09-21T18:40:44.745Z,3.30
2018-09-21T18:43:14.330Z,2.90
2018-09-21T18:45:44.316Z,2.67
2018-09-21T18:48:13.889Z,3.40
2018-09-21T18:50:43.584Z,3.57
2018-09-21T18:53:13.138Z,4.83
2018-09-21T18:55:42.890Z,3.90
2018-09-21T18:58:12.510Z,3.13
2018-09-21T19:00:42.123Z,2.97
2018-09-21T19:03:12.145Z,3.20
2018-09-21T19:05:41.732Z,3.20
2018-09-21T19:08:11.337Z,3.23
2018-09-21T19:10:40.900Z,3.40
2018-09-21T19:13:10.472Z,3.40
2018-09-21T19:15:40.031Z,4.10
2018-09-21T19:18:09.593Z,2.93
2018-09-21T19:20:39.185Z,4.10
2018-09-21T19:23:08.769Z,3.50
2018-09-21T19:25:38.412Z,3.73
2018-09-21T19:28:08.008Z,3.07
2018-09-21T19:30:37.540Z,3.20
2018-09-21T19:33:07.187Z,3.50
2018-09-21T19:35:36.846Z,3.20
2018-09-21T19:38:06.996Z,3.37
2018-09-21T19:40:36.603Z,3.63
2018-09-21T19:43:06.515Z,3.50
2018-09-21T19:45:36.098Z,3.47
2018-09-21T19:48:06.005Z,4.00
2018-09-21T19:50:35.616Z,3.70
2018-09-21T19:53:05.243Z,4.70
2018-09-21T19:55:34.806Z,3.33
2018-09-21T19:58:04.393Z,3.80
2018-09-21T20:00:34.061Z,3.47
2018-09-21T20:03:03.676Z,3.27
2018-09-21T20:05:33.306Z,4.03
2018-09-21T20:08:03.012Z,4.07
2018-09-21T20:10:32.588Z,3.70
2018-09-21T20:13:02.170Z,3.40
2018-09-21T20:15:31.752Z,4.10
2018-09-21T20:18:01.352Z,3.90
2018-09-21T20:20:30.920Z,3.50
2018-09-21T20:23:00.490Z,3.30
2018-09-21T20:25:30.133Z,4.90
2018-09-21T20:27:59.737Z,3.40
2018-09-21T20:30:34.335Z,3.47
2018-09-21T20:33:08.991Z,4.03
2018-09-21T20:35:38.644Z,3.50
2018-09-21T20:38:08.274Z,4.20
2018-09-21T20:40:37.822Z,4.60
2018-09-21T20:43:07.408Z,5.60
2018-09-21T20:45:36.980Z,5.67
2018-09-21T20:48:06.578Z,7.63
2018-09-21T20:50:36.216Z,7.60
2018-09-21T20:53:05.779Z,8.73
2018-09-21T20:55:35.428Z,8.90
2018-09-21T20:58:05.380Z,8.87
2018-09-21T21:00:34.992Z,9.33
2018-09-21T21:03:04.720Z,9.17
2018-09-21T21:05:34.405Z,6.23
2018-09-21T21:08:04.001Z,6.83
2018-09-21T21:10:33.595Z,6.27
2018-09-21T21:13:03.150Z,5.93
2018-09-21T21:15:32.733Z,5.40
2018-09-21T21:18:02.300Z,4.60
2018-09-21T21:20:31.845Z,4.03
2018-09-21T21:23:01.444Z,3.73
2018-09-21T21:25:31.053Z,3.40
2018-09-21T21:28:00.664Z,2.73
2018-09-21T21:30:30.340Z,3.00
2018-09-21T21:32:59.957Z,3.10
2018-09-21T21:35:29.556Z,2.60
2018-09-21T21:37:59.205Z,2.50
2018-09-21T21:40:28.829Z,2.13
2018-09-21T21:42:58.394Z,2.20
2018-09-21T21:45:27.999Z,2.43
2018-09-21T21:47:57.537Z,2.97
2018-09-21T21:50:27.076Z,1.93
2018-09-21T21:52:56.871Z,2.30
2018-09-21T21:55:26.577Z,1.90
2018-09-21T21:57:56.156Z,1.90
2018-09-21T22:00:29.816Z,1.77
2018-09-21T22:02:59.402Z,2.50
2018-09-21T22:05:28.962Z,1.83
2018-09-21T22:07:58.581Z,2.30
2018-09-21T22:10:28.288Z,1.93
2018-09-21T22:13:03.088Z,1.70
2018-09-21T22:15:32.691Z,1.60
2018-09-21T22:18:02.340Z,2.17
2018-09-21T22:20:32.035Z,2.07
2018-09-21T22:23:01.618Z,2.20
2018-09-21T22:25:31.172Z,1.90
2018-09-21T22:28:00.859Z,2.30
2018-09-21T22:30:30.470Z,1.77
2018-09-21T22:33:00.096Z,2.13
2018-09-21T22:35:30.105Z,2.40
2018-09-21T22:37:59.824Z,2.20
2018-09-21T22:40:29.582Z,2.10
2018-09-21T22:42:59.332Z,2.30
2018-09-21T22:45:28.953Z,2.03
2018-09-21T22:47:58.557Z,1.90
2018-09-21T22:50:28.198Z,1.97
2018-09-21T22:52:57.885Z,2.47
2018-09-21T22:55:27.572Z,2.33
2018-09-21T22:57:57.146Z,2.80
2018-09-21T23:00:26.849Z,3.33
2018-09-21T23:02:56.502Z,2.70
2018-09-21T23:05:26.216Z,3.80
2018-09-21T23:07:55.936Z,2.37
2018-09-21T23:10:25.527Z,2.10
2018-09-21T23:12:55.360Z,2.07
2018-09-21T23:15:24.978Z,2.73
2018-09-21T23:17:54.523Z,2.23
2018-09-21T23:20:24.131Z,2.00
2018-09-21T23:22:53.692Z,2.73
2018-09-21T23:25:23.255Z,3.07
2018-09-21T23:27:52.882Z,3.23
2018-09-21T23:30:22.564Z,2.10
2018-09-21T23:32:52.229Z,2.10
2018-09-21T23:35:22.136Z,1.50
2018-09-21T23:37:51.790Z,2.27
2018-09-21T23:40:21.354Z,1.50
2018-09-21T23:42:50.976Z,2.53
2018-09-21T23:45:20.535Z,2.20
2018-09-21T23:47:50.160Z,1.80
2018-09-21T23:50:20.136Z,1.70
2018-09-21T23:52:49.712Z,1.80
2018-09-21T23:55:19.277Z,2.13
2018-09-21T23:57:49.116Z,1.60
